sensor_id;sensor_type;location;lat;lon;timestamp;temperature;humidity
7129;DHT22;3606;52.930;8.644;2023-07-08T00:00:17;16.10;1.00
7129;DHT22;3606;52.930;8.644;2023-07-08T00:02:44;16.00;99.90
7129;DHT22;3606;52.930;8.644;2023-07-08T00:05:14;16.00;99.90
7129;DHT22;3606;52.930;8.644;2023-07-08T00:07:40;16.00;99.90
7129;DHT22;3606;52.930;8.644;2023-07-08T00:10:33;15.90;1.00
7129;DHT22;3606;52.930;8.644;2023-07-08T00:12:58;15.90;1.00
7129;DHT22;3606;52.930;8.644;2023-07-08T00:15:27;15.90;99.90
7129;DHT22;3606;52.930;8.644;2023-07-08T00:17:53;15.90;99.90
7129;DHT22;3606;52.930;8.644;2023-07-08T00:20:34;15.80;99.90
7129;DHT22;3606;52.930;8.644;2023-07-08T00:23:00;15.80;1.00
7129;DHT22;3606;52.930;8.644;2023-07-08T00:25:27;15.80;35.50
7129;DHT22;3606;52.930;8.644;2023-07-08T00:27:52;15.70;1.00
7129;DHT22;3606;52.930;8.644;2023-07-08T00:30:29;15.70;99.90
7129;DHT22;3606;52.930;8.644;2023-07-08T00:32:56;15.70;99.90
7129;DHT22;3606;52.930;8.644;2023-07-08T00:35:24;15.60;99.90
7129;DHT22;3606;52.930;8.644;2023-07-08T00:37:52;15.50;1.00
7129;DHT22;3606;52.930;8.644;2023-07-08T00:40:26;15.50;1.00
7129;DHT22;3606;52.930;8.644;2023-07-08T00:42:53;15.50;26.90
7129;DHT22;3606;52.930;8.644;2023-07-08T00:47:57;15.50;1.00
7129;DHT22;3606;52.930;8.644;2023-07-08T00:50:25;15.40;1.00
7129;DHT22;3606;52.930;8.644;2023-07-08T00:53:27;15.40;1.00
7129;DHT22;3606;52.930;8.644;2023-07-08T00:55:58;15.30;1.00
7129;DHT22;3606;52.930;8.644;2023-07-08T00:58:35;15.20;1.00
7129;DHT22;3606;52.930;8.644;2023-07-08T01:01:02;15.20;1.00
7129;DHT22;3606;52.930;8.644;2023-07-08T01:03:30;15.10;99.90
7129;DHT22;3606;52.930;8.644;2023-07-08T01:05:57;15.10;81.20
7129;DHT22;3606;52.930;8.644;2023-07-08T01:08:27;15.00;99.90
7129;DHT22;3606;52.930;8.644;2023-07-08T01:10:58;14.90;99.90
7129;DHT22;3606;52.930;8.644;2023-07-08T01:13:28;14.90;1.00
7129;DHT22;3606;52.930;8.644;2023-07-08T01:15:56;14.80;99.90
7129;DHT22;3606;52.930;8.644;2023-07-08T01:18:22;14.70;99.90
7129;DHT22;3606;52.930;8.644;2023-07-08T01:20:47;14.80;1.00
7129;DHT22;3606;52.930;8.644;2023-07-08T01:23:13;14.90;1.00
7129;DHT22;3606;52.930;8.644;2023-07-08T01:25:41;14.80;1.00
7129;DHT22;3606;52.930;8.644;2023-07-08T01:28:08;14.70;1.00
7129;DHT22;3606;52.930;8.644;2023-07-08T01:30:34;14.70;1.00
7129;DHT22;3606;52.930;8.644;2023-07-08T01:33:04;14.70;99.90
7129;DHT22;3606;52.930;8.644;2023-07-08T01:35:31;14.60;99.90
7129;DHT22;3606;52.930;8.644;2023-07-08T01:37:59;14.50;1.00
7129;DHT22;3606;52.930;8.644;2023-07-08T01:40:31;14.50;1.00
7129;DHT22;3606;52.930;8.644;2023-07-08T01:42:58;14.40;1.00
7129;DHT22;3606;52.930;8.644;2023-07-08T01:45:28;14.40;1.00
7129;DHT22;3606;52.930;8.644;2023-07-08T01:48:08;14.40;99.90
7129;DHT22;3606;52.930;8.644;2023-07-08T01:50:39;14.40;99.90
7129;DHT22;3606;52.930;8.644;2023-07-08T01:53:10;14.30;1.00
7129;DHT22;3606;52.930;8.644;2023-07-08T01:55:37;14.30;1.00
7129;DHT22;3606;52.930;8.644;2023-07-08T01:58:02;14.40;99.90
7129;DHT22;3606;52.930;8.644;2023-07-08T02:00:28;14.40;99.90
7129;DHT22;3606;52.930;8.644;2023-07-08T02:02:53;14.40;99.90
7129;DHT22;3606;52.930;8.644;2023-07-08T02:05:19;14.40;99.90
7129;DHT22;3606;52.930;8.644;2023-07-08T02:07:44;14.30;1.00
7129;DHT22;3606;52.930;8.644;2023-07-08T02:10:10;14.30;1.00
7129;DHT22;3606;52.930;8.644;2023-07-08T02:12:36;14.30;1.00
7129;DHT22;3606;52.930;8.644;2023-07-08T02:15:02;14.30;1.00
7129;DHT22;3606;52.930;8.644;2023-07-08T02:17:28;14.30;1.00
7129;DHT22;3606;52.930;8.644;2023-07-08T02:19:55;14.20;1.00
7129;DHT22;3606;52.930;8.644;2023-07-08T02:22:20;14.10;1.00
7129;DHT22;3606;52.930;8.644;2023-07-08T02:24:46;14.00;1.00
7129;DHT22;3606;52.930;8.644;2023-07-08T02:27:13;13.90;1.00
7129;DHT22;3606;52.930;8.644;2023-07-08T02:29:38;14.00;1.00
7129;DHT22;3606;52.930;8.644;2023-07-08T02:32:04;13.90;1.00
7129;DHT22;3606;52.930;8.644;2023-07-08T02:34:30;13.90;1.00
7129;DHT22;3606;52.930;8.644;2023-07-08T02:36:56;13.90;1.00
7129;DHT22;3606;52.930;8.644;2023-07-08T02:39:22;13.80;1.00
7129;DHT22;3606;52.930;8.644;2023-07-08T02:41:48;13.80;1.00
7129;DHT22;3606;52.930;8.644;2023-07-08T02:44:13;13.80;1.00
7129;DHT22;3606;52.930;8.644;2023-07-08T02:46:39;13.80;1.00
7129;DHT22;3606;52.930;8.644;2023-07-08T02:49:04;13.80;1.00
7129;DHT22;3606;52.930;8.644;2023-07-08T02:51:31;13.70;1.00
7129;DHT22;3606;52.930;8.644;2023-07-08T02:53:57;13.80;1.00
7129;DHT22;3606;52.930;8.644;2023-07-08T02:56:22;13.80;1.00
7129;DHT22;3606;52.930;8.644;2023-07-08T02:58:48;13.80;1.00
7129;DHT22;3606;52.930;8.644;2023-07-08T03:01:14;13.80;1.00
7129;DHT22;3606;52.930;8.644;2023-07-08T03:03:44;13.80;1.00
7129;DHT22;3606;52.930;8.644;2023-07-08T03:06:10;13.80;1.00
7129;DHT22;3606;52.930;8.644;2023-07-08T03:08:36;13.80;1.00
7129;DHT22;3606;52.930;8.644;2023-07-08T03:11:03;13.70;1.00
7129;DHT22;3606;52.930;8.644;2023-07-08T03:13:30;13.60;1.00
7129;DHT22;3606;52.930;8.644;2023-07-08T03:15:57;13.70;1.00
7129;DHT22;3606;52.930;8.644;2023-07-08T03:18:24;13.60;1.00
7129;DHT22;3606;52.930;8.644;2023-07-08T03:20:52;13.60;2.00
7129;DHT22;3606;52.930;8.644;2023-07-08T03:23:18;13.50;82.70
7129;DHT22;3606;52.930;8.644;2023-07-08T03:25:43;13.50;99.90
7129;DHT22;3606;52.930;8.644;2023-07-08T03:28:09;13.60;30.40
7129;DHT22;3606;52.930;8.644;2023-07-08T03:30:41;13.70;1.00
7129;DHT22;3606;52.930;8.644;2023-07-08T03:33:07;13.80;1.00
7129;DHT22;3606;52.930;8.644;2023-07-08T03:35:33;14.00;99.90
7129;DHT22;3606;52.930;8.644;2023-07-08T03:37:58;14.00;99.90
7129;DHT22;3606;52.930;8.644;2023-07-08T03:40:24;14.00;99.90
7129;DHT22;3606;52.930;8.644;2023-07-08T03:42:49;14.00;8.30
7129;DHT22;3606;52.930;8.644;2023-07-08T03:45:15;14.00;64.30
7129;DHT22;3606;52.930;8.644;2023-07-08T03:47:40;14.00;99.90
7129;DHT22;3606;52.930;8.644;2023-07-08T03:50:15;14.00;99.90
7129;DHT22;3606;52.930;8.644;2023-07-08T03:52:42;14.00;99.90
7129;DHT22;3606;52.930;8.644;2023-07-08T03:55:11;14.00;99.90
7129;DHT22;3606;52.930;8.644;2023-07-08T03:57:37;14.10;99.90
7129;DHT22;3606;52.930;8.644;2023-07-08T04:00:03;14.10;99.90
7129;DHT22;3606;52.930;8.644;2023-07-08T04:02:29;14.10;99.90
7129;DHT22;3606;52.930;8.644;2023-07-08T04:04:54;14.20;99.90
7129;DHT22;3606;52.930;8.644;2023-07-08T04:07:20;14.30;99.90
7129;DHT22;3606;52.930;8.644;2023-07-08T04:09:45;14.30;99.90
7129;DHT22;3606;52.930;8.644;2023-07-08T04:12:15;14.40;1.00
7129;DHT22;3606;52.930;8.644;2023-07-08T04:14:41;14.40;1.00
7129;DHT22;3606;52.930;8.644;2023-07-08T04:17:08;14.40;1.00
7129;DHT22;3606;52.930;8.644;2023-07-08T04:19:34;14.50;1.00
7129;DHT22;3606;52.930;8.644;2023-07-08T04:22:02;14.50;1.00
7129;DHT22;3606;52.930;8.644;2023-07-08T04:24:27;14.70;99.90
7129;DHT22;3606;52.930;8.644;2023-07-08T04:26:53;14.80;99.90
7129;DHT22;3606;52.930;8.644;2023-07-08T04:29:20;14.80;99.90
7129;DHT22;3606;52.930;8.644;2023-07-08T04:31:47;14.80;99.90
7129;DHT22;3606;52.930;8.644;2023-07-08T04:34:13;14.80;99.90
7129;DHT22;3606;52.930;8.644;2023-07-08T04:36:39;14.90;99.90
7129;DHT22;3606;52.930;8.644;2023-07-08T04:39:06;14.90;99.90
7129;DHT22;3606;52.930;8.644;2023-07-08T04:41:32;15.10;99.90
7129;DHT22;3606;52.930;8.644;2023-07-08T04:43:57;15.20;1.00
7129;DHT22;3606;52.930;8.644;2023-07-08T04:46:35;15.30;1.00
7129;DHT22;3606;52.930;8.644;2023-07-08T04:49:05;15.30;1.00
7129;DHT22;3606;52.930;8.644;2023-07-08T04:51:31;15.40;99.90
7129;DHT22;3606;52.930;8.644;2023-07-08T04:53:57;15.40;1.00
7129;DHT22;3606;52.930;8.644;2023-07-08T04:56:25;15.60;1.00
7129;DHT22;3606;52.930;8.644;2023-07-08T04:58:51;16.00;1.00
7129;DHT22;3606;52.930;8.644;2023-07-08T05:01:16;16.20;1.00
7129;DHT22;3606;52.930;8.644;2023-07-08T05:03:42;16.40;1.00
7129;DHT22;3606;52.930;8.644;2023-07-08T05:06:08;16.50;1.00
7129;DHT22;3606;52.930;8.644;2023-07-08T05:08:33;16.60;99.90
7129;DHT22;3606;52.930;8.644;2023-07-08T05:10:59;16.70;1.00
7129;DHT22;3606;52.930;8.644;2023-07-08T05:13:25;17.10;99.90
7129;DHT22;3606;52.930;8.644;2023-07-08T05:15:50;17.50;1.00
7129;DHT22;3606;52.930;8.644;2023-07-08T05:18:16;17.90;1.00
7129;DHT22;3606;52.930;8.644;2023-07-08T05:20:41;18.20;1.00
7129;DHT22;3606;52.930;8.644;2023-07-08T05:23:08;18.10;1.00
7129;DHT22;3606;52.930;8.644;2023-07-08T05:25:35;17.80;1.00
7129;DHT22;3606;52.930;8.644;2023-07-08T05:28:00;17.70;99.90
7129;DHT22;3606;52.930;8.644;2023-07-08T05:30:26;17.70;99.90
7129;DHT22;3606;52.930;8.644;2023-07-08T05:32:53;17.80;1.00
7129;DHT22;3606;52.930;8.644;2023-07-08T05:35:18;18.10;99.90
7129;DHT22;3606;52.930;8.644;2023-07-08T05:37:44;18.50;1.00
7129;DHT22;3606;52.930;8.644;2023-07-08T05:40:12;18.90;1.00
7129;DHT22;3606;52.930;8.644;2023-07-08T05:42:38;19.30;1.00
7129;DHT22;3606;52.930;8.644;2023-07-08T05:45:04;19.60;1.00
7129;DHT22;3606;52.930;8.644;2023-07-08T05:47:35;20.00;99.90
7129;DHT22;3606;52.930;8.644;2023-07-08T05:50:01;20.10;1.00
7129;DHT22;3606;52.930;8.644;2023-07-08T05:52:27;20.10;99.90
7129;DHT22;3606;52.930;8.644;2023-07-08T05:54:52;20.00;1.00
7129;DHT22;3606;52.930;8.644;2023-07-08T05:57:18;20.10;99.90
7129;DHT22;3606;52.930;8.644;2023-07-08T05:59:44;20.20;99.90
7129;DHT22;3606;52.930;8.644;2023-07-08T06:02:11;20.20;99.90
7129;DHT22;3606;52.930;8.644;2023-07-08T06:04:37;20.50;99.90
7129;DHT22;3606;52.930;8.644;2023-07-08T06:07:03;20.80;99.90
7129;DHT22;3606;52.930;8.644;2023-07-08T06:09:28;20.70;99.90
7129;DHT22;3606;52.930;8.644;2023-07-08T06:11:54;20.90;99.90
7129;DHT22;3606;52.930;8.644;2023-07-08T06:14:19;21.00;99.90
7129;DHT22;3606;52.930;8.644;2023-07-08T06:16:46;21.20;99.90
7129;DHT22;3606;52.930;8.644;2023-07-08T06:19:11;21.40;1.00
7129;DHT22;3606;52.930;8.644;2023-07-08T06:21:37;21.80;1.00
7129;DHT22;3606;52.930;8.644;2023-07-08T06:24:03;22.00;1.00
7129;DHT22;3606;52.930;8.644;2023-07-08T06:26:29;22.10;1.00
7129;DHT22;3606;52.930;8.644;2023-07-08T06:28:54;22.30;1.00
7129;DHT22;3606;52.930;8.644;2023-07-08T06:31:20;22.50;1.00
7129;DHT22;3606;52.930;8.644;2023-07-08T06:33:45;22.60;1.00
7129;DHT22;3606;52.930;8.644;2023-07-08T06:36:11;22.70;1.00
7129;DHT22;3606;52.930;8.644;2023-07-08T06:38:36;23.00;1.00
7129;DHT22;3606;52.930;8.644;2023-07-08T06:41:02;23.30;99.90
7129;DHT22;3606;52.930;8.644;2023-07-08T06:43:27;23.60;99.90
7129;DHT22;3606;52.930;8.644;2023-07-08T06:45:53;23.80;99.90
7129;DHT22;3606;52.930;8.644;2023-07-08T06:48:19;23.80;99.90
7129;DHT22;3606;52.930;8.644;2023-07-08T06:50:48;23.90;99.90
7129;DHT22;3606;52.930;8.644;2023-07-08T06:53:15;24.10;99.90
7129;DHT22;3606;52.930;8.644;2023-07-08T06:55:40;24.50;99.90
7129;DHT22;3606;52.930;8.644;2023-07-08T06:58:06;24.50;99.90
7129;DHT22;3606;52.930;8.644;2023-07-08T07:00:32;24.60;99.90
7129;DHT22;3606;52.930;8.644;2023-07-08T07:02:57;24.80;99.90
7129;DHT22;3606;52.930;8.644;2023-07-08T07:05:23;24.50;99.20
7129;DHT22;3606;52.930;8.644;2023-07-08T07:07:48;24.20;69.60
7129;DHT22;3606;52.930;8.644;2023-07-08T07:10:14;24.30;95.70
7129;DHT22;3606;52.930;8.644;2023-07-08T07:12:40;24.60;99.90
7129;DHT22;3606;52.930;8.644;2023-07-08T07:15:06;24.90;95.20
7129;DHT22;3606;52.930;8.644;2023-07-08T07:17:31;25.10;91.20
7129;DHT22;3606;52.930;8.644;2023-07-08T07:19:57;25.30;50.30
7129;DHT22;3606;52.930;8.644;2023-07-08T07:22:23;25.20;51.10
7129;DHT22;3606;52.930;8.644;2023-07-08T07:24:49;25.60;59.30
7129;DHT22;3606;52.930;8.644;2023-07-08T07:27:14;25.90;17.00
7129;DHT22;3606;52.930;8.644;2023-07-08T07:29:42;26.00;1.00
7129;DHT22;3606;52.930;8.644;2023-07-08T07:32:09;26.30;1.00
7129;DHT22;3606;52.930;8.644;2023-07-08T07:34:35;26.60;1.00
7129;DHT22;3606;52.930;8.644;2023-07-08T07:37:00;26.90;1.00
7129;DHT22;3606;52.930;8.644;2023-07-08T07:39:26;27.00;1.00
7129;DHT22;3606;52.930;8.644;2023-07-08T07:41:51;27.20;1.00
7129;DHT22;3606;52.930;8.644;2023-07-08T07:44:17;27.10;1.00
7129;DHT22;3606;52.930;8.644;2023-07-08T07:46:42;27.60;1.00
7129;DHT22;3606;52.930;8.644;2023-07-08T07:49:08;27.90;1.00
7129;DHT22;3606;52.930;8.644;2023-07-08T07:51:33;28.20;1.00
7129;DHT22;3606;52.930;8.644;2023-07-08T07:53:59;28.50;1.00
7129;DHT22;3606;52.930;8.644;2023-07-08T07:56:24;28.80;1.00
7129;DHT22;3606;52.930;8.644;2023-07-08T07:58:50;28.90;1.00
7129;DHT22;3606;52.930;8.644;2023-07-08T08:01:15;29.20;1.00
7129;DHT22;3606;52.930;8.644;2023-07-08T08:03:41;29.20;1.00
7129;DHT22;3606;52.930;8.644;2023-07-08T08:06:07;29.30;1.00
7129;DHT22;3606;52.930;8.644;2023-07-08T08:08:32;29.40;1.00
7129;DHT22;3606;52.930;8.644;2023-07-08T08:10:58;29.30;1.00
7129;DHT22;3606;52.930;8.644;2023-07-08T08:13:23;29.50;1.00
7129;DHT22;3606;52.930;8.644;2023-07-08T08:15:56;29.40;1.00
7129;DHT22;3606;52.930;8.644;2023-07-08T08:18:21;29.50;1.00
7129;DHT22;3606;52.930;8.644;2023-07-08T08:20:50;29.70;1.00
7129;DHT22;3606;52.930;8.644;2023-07-08T08:23:16;30.00;1.00
7129;DHT22;3606;52.930;8.644;2023-07-08T08:25:41;30.20;1.00
7129;DHT22;3606;52.930;8.644;2023-07-08T08:28:07;30.40;1.00
7129;DHT22;3606;52.930;8.644;2023-07-08T08:30:32;30.50;1.00
7129;DHT22;3606;52.930;8.644;2023-07-08T08:32:58;30.90;1.00
7129;DHT22;3606;52.930;8.644;2023-07-08T08:35:24;31.00;1.00
7129;DHT22;3606;52.930;8.644;2023-07-08T08:37:50;31.00;1.00
7129;DHT22;3606;52.930;8.644;2023-07-08T08:40:17;31.20;1.00
7129;DHT22;3606;52.930;8.644;2023-07-08T08:43:22;31.80;1.00
7129;DHT22;3606;52.930;8.644;2023-07-08T08:45:56;32.10;1.00
7129;DHT22;3606;52.930;8.644;2023-07-08T08:48:23;32.20;1.00
7129;DHT22;3606;52.930;8.644;2023-07-08T08:51:05;32.40;1.00
7129;DHT22;3606;52.930;8.644;2023-07-08T08:53:32;32.10;1.00
7129;DHT22;3606;52.930;8.644;2023-07-08T08:56:18;31.90;1.00
7129;DHT22;3606;52.930;8.644;2023-07-08T08:58:58;32.00;1.00
7129;DHT22;3606;52.930;8.644;2023-07-08T09:01:26;32.20;1.00
7129;DHT22;3606;52.930;8.644;2023-07-08T09:03:59;32.40;1.00
7129;DHT22;3606;52.930;8.644;2023-07-08T09:06:28;32.70;1.00
7129;DHT22;3606;52.930;8.644;2023-07-08T09:08:56;32.80;1.00
7129;DHT22;3606;52.930;8.644;2023-07-08T09:11:42;33.10;1.00
7129;DHT22;3606;52.930;8.644;2023-07-08T09:17:37;33.10;1.00
7129;DHT22;3606;52.930;8.644;2023-07-08T09:19:47;33.30;1.00
7129;DHT22;3606;52.930;8.644;2023-07-08T09:22:34;33.30;1.00
7129;DHT22;3606;52.930;8.644;2023-07-08T09:25:19;33.90;1.00
7129;DHT22;3606;52.930;8.644;2023-07-08T09:27:46;34.50;1.00
7129;DHT22;3606;52.930;8.644;2023-07-08T09:30:18;34.80;1.00
7129;DHT22;3606;52.930;8.644;2023-07-08T09:32:44;34.50;1.00
7129;DHT22;3606;52.930;8.644;2023-07-08T09:35:18;34.60;1.00
7129;DHT22;3606;52.930;8.644;2023-07-08T09:37:46;35.10;1.00
7129;DHT22;3606;52.930;8.644;2023-07-08T09:42:42;36.20;1.00
7129;DHT22;3606;52.930;8.644;2023-07-08T09:45:16;36.50;1.00
7129;DHT22;3606;52.930;8.644;2023-07-08T09:47:46;36.10;1.00
7129;DHT22;3606;52.930;8.644;2023-07-08T09:50:28;36.00;1.00
7129;DHT22;3606;52.930;8.644;2023-07-08T09:52:55;36.00;1.00
7129;DHT22;3606;52.930;8.644;2023-07-08T09:55:30;36.20;1.00
7129;DHT22;3606;52.930;8.644;2023-07-08T09:57:58;36.00;1.00
7129;DHT22;3606;52.930;8.644;2023-07-08T10:00:30;36.00;1.00
7129;DHT22;3606;52.930;8.644;2023-07-08T10:03:08;36.20;1.00
7129;DHT22;3606;52.930;8.644;2023-07-08T10:05:39;36.10;1.00
7129;DHT22;3606;52.930;8.644;2023-07-08T10:10:40;35.80;1.00
7129;DHT22;3606;52.930;8.644;2023-07-08T10:13:23;35.60;1.00
7129;DHT22;3606;52.930;8.644;2023-07-08T10:15:56;36.20;1.00
7129;DHT22;3606;52.930;8.644;2023-07-08T10:18:28;36.60;1.00
7129;DHT22;3606;52.930;8.644;2023-07-08T10:26:29;37.20;1.00
7129;DHT22;3606;52.930;8.644;2023-07-08T10:31:56;37.30;1.00
7129;DHT22;3606;52.930;8.644;2023-07-08T10:34:42;37.60;99.90
7129;DHT22;3606;52.930;8.644;2023-07-08T10:37:29;38.00;99.90
7129;DHT22;3606;52.930;8.644;2023-07-08T10:40:11;37.60;99.90
7129;DHT22;3606;52.930;8.644;2023-07-08T10:45:38;37.20;99.90
7129;DHT22;3606;52.930;8.644;2023-07-08T10:48:35;37.60;99.90
7129;DHT22;3606;52.930;8.644;2023-07-08T10:51:36;38.10;99.90
7129;DHT22;3606;52.930;8.644;2023-07-08T10:59:51;37.80;99.90
7129;DHT22;3606;52.930;8.644;2023-07-08T11:05:11;38.20;99.90
7129;DHT22;3606;52.930;8.644;2023-07-08T11:07:46;38.00;99.90
7129;DHT22;3606;52.930;8.644;2023-07-08T11:10:30;38.30;99.90
7129;DHT22;3606;52.930;8.644;2023-07-08T11:13:09;39.20;99.90
7129;DHT22;3606;52.930;8.644;2023-07-08T11:15:48;39.30;99.90
7129;DHT22;3606;52.930;8.644;2023-07-08T11:21:22;38.60;99.90
7129;DHT22;3606;52.930;8.644;2023-07-08T11:28:54;38.20;99.90
7129;DHT22;3606;52.930;8.644;2023-07-08T11:31:23;38.20;99.90
7129;DHT22;3606;52.930;8.644;2023-07-08T11:33:50;37.90;99.90
7129;DHT22;3606;52.930;8.644;2023-07-08T11:36:17;37.60;99.90
7129;DHT22;3606;52.930;8.644;2023-07-08T11:38:53;37.50;99.90
7129;DHT22;3606;52.930;8.644;2023-07-08T11:41:21;37.40;99.90
7129;DHT22;3606;52.930;8.644;2023-07-08T11:46:21;36.60;99.90
7129;DHT22;3606;52.930;8.644;2023-07-08T11:48:50;36.10;99.90
7129;DHT22;3606;52.930;8.644;2023-07-08T11:51:25;36.20;99.90
7129;DHT22;3606;52.930;8.644;2023-07-08T11:54:28;36.10;99.90
7129;DHT22;3606;52.930;8.644;2023-07-08T11:57:00;36.20;99.90
7129;DHT22;3606;52.930;8.644;2023-07-08T11:59:30;36.20;99.90
7129;DHT22;3606;52.930;8.644;2023-07-08T12:02:04;36.40;99.90
7129;DHT22;3606;52.930;8.644;2023-07-08T12:04:33;36.60;99.90
7129;DHT22;3606;52.930;8.644;2023-07-08T12:07:16;36.10;99.90
7129;DHT22;3606;52.930;8.644;2023-07-08T12:10:32;36.10;99.90
7129;DHT22;3606;52.930;8.644;2023-07-08T12:12:40;36.20;99.90
7129;DHT22;3606;52.930;8.644;2023-07-08T12:15:17;36.00;99.90
7129;DHT22;3606;52.930;8.644;2023-07-08T12:17:46;36.10;99.90
7129;DHT22;3606;52.930;8.644;2023-07-08T12:20:39;36.30;99.90
7129;DHT22;3606;52.930;8.644;2023-07-08T12:23:08;36.60;99.90
7129;DHT22;3606;52.930;8.644;2023-07-08T12:25:36;36.50;99.90
7129;DHT22;3606;52.930;8.644;2023-07-08T12:28:02;36.40;99.90
7129;DHT22;3606;52.930;8.644;2023-07-08T12:30:28;36.30;99.90
7129;DHT22;3606;52.930;8.644;2023-07-08T12:32:54;36.50;99.90
7129;DHT22;3606;52.930;8.644;2023-07-08T12:35:29;36.40;99.90
7129;DHT22;3606;52.930;8.644;2023-07-08T12:38:01;36.80;99.90
7129;DHT22;3606;52.930;8.644;2023-07-08T12:40:29;37.40;99.90
7129;DHT22;3606;52.930;8.644;2023-07-08T12:42:56;37.70;99.90
7129;DHT22;3606;52.930;8.644;2023-07-08T12:45:23;38.10;99.90
7129;DHT22;3606;52.930;8.644;2023-07-08T12:47:50;38.50;99.90
7129;DHT22;3606;52.930;8.644;2023-07-08T12:50:16;38.50;99.90
7129;DHT22;3606;52.930;8.644;2023-07-08T12:52:45;38.80;99.90
7129;DHT22;3606;52.930;8.644;2023-07-08T12:55:13;39.30;99.90
7129;DHT22;3606;52.930;8.644;2023-07-08T12:57:41;39.70;99.90
7129;DHT22;3606;52.930;8.644;2023-07-08T13:00:21;39.80;99.90
7129;DHT22;3606;52.930;8.644;2023-07-08T13:02:47;40.20;99.90
7129;DHT22;3606;52.930;8.644;2023-07-08T13:05:17;40.20;99.90
7129;DHT22;3606;52.930;8.644;2023-07-08T13:07:44;40.80;99.90
7129;DHT22;3606;52.930;8.644;2023-07-08T13:10:21;40.50;99.90
7129;DHT22;3606;52.930;8.644;2023-07-08T13:12:51;40.70;99.90
7129;DHT22;3606;52.930;8.644;2023-07-08T13:15:29;40.50;99.90
7129;DHT22;3606;52.930;8.644;2023-07-08T13:17:58;39.70;99.90
7129;DHT22;3606;52.930;8.644;2023-07-08T13:20:25;39.30;99.90
7129;DHT22;3606;52.930;8.644;2023-07-08T13:22:57;39.90;99.90
7129;DHT22;3606;52.930;8.644;2023-07-08T13:25:29;40.90;99.90
7129;DHT22;3606;52.930;8.644;2023-07-08T13:30:59;40.90;99.90
7129;DHT22;3606;52.930;8.644;2023-07-08T13:33:33;40.80;99.90
7129;DHT22;3606;52.930;8.644;2023-07-08T13:36:02;40.80;99.90
7129;DHT22;3606;52.930;8.644;2023-07-08T13:38:33;41.30;99.90
7129;DHT22;3606;52.930;8.644;2023-07-08T13:41:02;41.80;99.90
7129;DHT22;3606;52.930;8.644;2023-07-08T13:43:32;41.20;99.90
7129;DHT22;3606;52.930;8.644;2023-07-08T13:45:58;41.00;99.90
7129;DHT22;3606;52.930;8.644;2023-07-08T13:48:42;40.70;99.90
7129;DHT22;3606;52.930;8.644;2023-07-08T13:51:18;40.60;99.90
7129;DHT22;3606;52.930;8.644;2023-07-08T13:53:50;40.50;99.90
7129;DHT22;3606;52.930;8.644;2023-07-08T13:56:22;40.40;99.90
7129;DHT22;3606;52.930;8.644;2023-07-08T13:58:51;41.40;99.90
7129;DHT22;3606;52.930;8.644;2023-07-08T14:01:23;41.40;99.90
7129;DHT22;3606;52.930;8.644;2023-07-08T14:03:49;41.00;99.90
7129;DHT22;3606;52.930;8.644;2023-07-08T14:06:28;40.90;99.90
7129;DHT22;3606;52.930;8.644;2023-07-08T14:08:56;40.60;99.90
7129;DHT22;3606;52.930;8.644;2023-07-08T14:11:22;41.00;99.90
7129;DHT22;3606;52.930;8.644;2023-07-08T14:13:48;41.70;99.90
7129;DHT22;3606;52.930;8.644;2023-07-08T14:16:25;42.40;99.90
7129;DHT22;3606;52.930;8.644;2023-07-08T14:18:55;42.10;99.90
7129;DHT22;3606;52.930;8.644;2023-07-08T14:21:21;41.70;99.90
7129;DHT22;3606;52.930;8.644;2023-07-08T14:23:47;41.50;99.90
7129;DHT22;3606;52.930;8.644;2023-07-08T14:26:13;40.80;99.90
7129;DHT22;3606;52.930;8.644;2023-07-08T14:28:39;41.00;99.90
7129;DHT22;3606;52.930;8.644;2023-07-08T14:31:17;40.90;99.90
7129;DHT22;3606;52.930;8.644;2023-07-08T14:33:44;41.00;99.90
7129;DHT22;3606;52.930;8.644;2023-07-08T14:36:10;40.90;99.90
7129;DHT22;3606;52.930;8.644;2023-07-08T14:38:36;40.90;99.90
7129;DHT22;3606;52.930;8.644;2023-07-08T14:41:02;40.50;99.90
7129;DHT22;3606;52.930;8.644;2023-07-08T14:43:29;40.40;99.90
7129;DHT22;3606;52.930;8.644;2023-07-08T14:46:00;40.20;99.90
7129;DHT22;3606;52.930;8.644;2023-07-08T14:48:30;40.20;99.90
7129;DHT22;3606;52.930;8.644;2023-07-08T14:50:56;40.00;99.90
7129;DHT22;3606;52.930;8.644;2023-07-08T14:53:22;39.60;99.90
7129;DHT22;3606;52.930;8.644;2023-07-08T14:55:51;39.80;99.90
7129;DHT22;3606;52.930;8.644;2023-07-08T14:58:29;40.10;99.90
7129;DHT22;3606;52.930;8.644;2023-07-08T15:00:56;40.50;99.90
7129;DHT22;3606;52.930;8.644;2023-07-08T15:03:23;40.60;99.90
7129;DHT22;3606;52.930;8.644;2023-07-08T15:05:49;40.50;99.90
7129;DHT22;3606;52.930;8.644;2023-07-08T15:08:14;39.80;99.90
7129;DHT22;3606;52.930;8.644;2023-07-08T15:10:49;39.60;99.90
7129;DHT22;3606;52.930;8.644;2023-07-08T15:13:19;39.50;99.90
7129;DHT22;3606;52.930;8.644;2023-07-08T15:15:47;40.00;99.90
7129;DHT22;3606;52.930;8.644;2023-07-08T15:18:14;39.90;99.90
7129;DHT22;3606;52.930;8.644;2023-07-08T15:20:41;39.50;99.90
7129;DHT22;3606;52.930;8.644;2023-07-08T15:23:07;39.30;99.90
7129;DHT22;3606;52.930;8.644;2023-07-08T15:25:34;39.30;99.90
7129;DHT22;3606;52.930;8.644;2023-07-08T15:28:01;39.30;99.90
7129;DHT22;3606;52.930;8.644;2023-07-08T15:30:30;39.60;99.90
7129;DHT22;3606;52.930;8.644;2023-07-08T15:32:57;39.90;99.90
7129;DHT22;3606;52.930;8.644;2023-07-08T15:35:28;39.80;99.90
7129;DHT22;3606;52.930;8.644;2023-07-08T15:37:58;39.80;99.90
7129;DHT22;3606;52.930;8.644;2023-07-08T15:40:25;39.30;99.90
7129;DHT22;3606;52.930;8.644;2023-07-08T15:42:54;38.40;99.90
7129;DHT22;3606;52.930;8.644;2023-07-08T15:45:34;37.00;99.90
7129;DHT22;3606;52.930;8.644;2023-07-08T15:48:00;35.80;99.90
7129;DHT22;3606;52.930;8.644;2023-07-08T15:50:27;35.00;99.90
7129;DHT22;3606;52.930;8.644;2023-07-08T15:52:54;34.40;99.90
7129;DHT22;3606;52.930;8.644;2023-07-08T15:55:25;34.10;99.90
7129;DHT22;3606;52.930;8.644;2023-07-08T15:58:37;33.90;99.90
7129;DHT22;3606;52.930;8.644;2023-07-08T16:00:44;33.60;99.90
7129;DHT22;3606;52.930;8.644;2023-07-08T16:03:13;33.50;99.90
7129;DHT22;3606;52.930;8.644;2023-07-08T16:05:41;33.30;99.90
7129;DHT22;3606;52.930;8.644;2023-07-08T16:08:09;33.20;99.90
7129;DHT22;3606;52.930;8.644;2023-07-08T16:10:34;33.20;99.90
7129;DHT22;3606;52.930;8.644;2023-07-08T16:13:02;33.10;99.90
7129;DHT22;3606;52.930;8.644;2023-07-08T16:15:32;33.00;99.90
7129;DHT22;3606;52.930;8.644;2023-07-08T16:17:58;32.90;99.90
7129;DHT22;3606;52.930;8.644;2023-07-08T16:20:27;32.90;99.90
7129;DHT22;3606;52.930;8.644;2023-07-08T16:22:54;32.90;99.90
7129;DHT22;3606;52.930;8.644;2023-07-08T16:25:30;32.80;99.90
7129;DHT22;3606;52.930;8.644;2023-07-08T16:27:57;32.70;99.90
7129;DHT22;3606;52.930;8.644;2023-07-08T16:30:24;32.70;99.90
7129;DHT22;3606;52.930;8.644;2023-07-08T16:32:50;32.70;1.00
7129;DHT22;3606;52.930;8.644;2023-07-08T16:35:18;32.60;99.90
7129;DHT22;3606;52.930;8.644;2023-07-08T16:37:46;32.50;99.90
7129;DHT22;3606;52.930;8.644;2023-07-08T16:42:44;32.40;99.90
7129;DHT22;3606;52.930;8.644;2023-07-08T16:45:12;32.40;99.90
7129;DHT22;3606;52.930;8.644;2023-07-08T16:47:38;32.30;99.90
7129;DHT22;3606;52.930;8.644;2023-07-08T16:50:04;32.30;99.90
7129;DHT22;3606;52.930;8.644;2023-07-08T16:52:30;32.30;99.90
7129;DHT22;3606;52.930;8.644;2023-07-08T16:54:58;32.30;99.90
7129;DHT22;3606;52.930;8.644;2023-07-08T16:57:23;32.30;99.90
7129;DHT22;3606;52.930;8.644;2023-07-08T16:59:50;32.70;99.90
7129;DHT22;3606;52.930;8.644;2023-07-08T17:02:16;33.50;99.90
7129;DHT22;3606;52.930;8.644;2023-07-08T17:04:43;34.30;99.90